sensor_id;sensor_type;location;lat;lon;timestamp;P1;P2;P0
33948;PMS7003;20229;49.856;19.030;2023-03-01T00:03:12;328;313;106
33948;PMS7003;20229;49.856;19.030;2023-03-01T00:08:26;334;322;115
33948;PMS7003;20229;49.856;19.030;2023-03-01T00:13:40;326;315;110
33948;PMS7003;20229;49.856;19.030;2023-03-01T00:18:55;290;279;100
33948;PMS7003;20229;49.856;19.030;2023-03-01T00:24:10;285;275;98
33948;PMS7003;20229;49.856;19.030;2023-03-01T00:29:25;281;268;100
33948;PMS7003;20229;49.856;19.030;2023-03-01T00:34:38;198;183;81
33948;PMS7003;20229;49.856;19.030;2023-03-01T00:39:52;190;176;79
33948;PMS7003;20229;49.856;19.030;2023-03-01T00:45:06;160;146;68
33948;PMS7003;20229;49.856;19.030;2023-03-01T00:50:20;140;126;54
33948;PMS7003;20229;49.856;19.030;2023-03-01T00:55:35;141;126;60
33948;PMS7003;20229;49.856;19.030;2023-03-01T01:00:49;126;111;48
33948;PMS7003;20229;49.856;19.030;2023-03-01T01:06:05;98;80;45
33948;PMS7003;20229;49.856;19.030;2023-03-01T01:11:23;104;90;50
33948;PMS7003;20229;49.856;19.030;2023-03-01T01:16:38;85;71;46
33948;PMS7003;20229;49.856;19.030;2023-03-01T01:21:52;89;71;44
33948;PMS7003;20229;49.856;19.030;2023-03-01T01:27:05;88;71;47
33948;PMS7003;20229;49.856;19.030;2023-03-01T01:32:20;89;71;47
33948;PMS7003;20229;49.856;19.030;2023-03-01T01:37:34;78;62;37
33948;PMS7003;20229;49.856;19.030;2023-03-01T01:42:50;82;66;38
33948;PMS7003;20229;49.856;19.030;2023-03-01T01:48:04;82;68;42
33948;PMS7003;20229;49.856;19.030;2023-03-01T01:53:24;75;58;36
33948;PMS7003;20229;49.856;19.030;2023-03-01T01:58:39;79;66;43
33948;PMS7003;20229;49.856;19.030;2023-03-01T02:03:55;82;66;40
33948;PMS7003;20229;49.856;19.030;2023-03-01T02:09:13;78;61;40
33948;PMS7003;20229;49.856;19.030;2023-03-01T02:14:28;83;65;42
33948;PMS7003;20229;49.856;19.030;2023-03-01T02:19:45;83;70;45
33948;PMS7003;20229;49.856;19.030;2023-03-01T02:25:40;79;58;36
33948;PMS7003;20229;49.856;19.030;2023-03-01T02:31:05;83;67;42
33948;PMS7003;20229;49.856;19.030;2023-03-01T02:36:52;77;60;37
33948;PMS7003;20229;49.856;19.030;2023-03-01T02:42:00;71;57;36
33948;PMS7003;20229;49.856;19.030;2023-03-01T02:47:16;72;58;37
33948;PMS7003;20229;49.856;19.030;2023-03-01T02:57:55;74;58;39
33948;PMS7003;20229;49.856;19.030;2023-03-01T03:03:10;71;57;34
33948;PMS7003;20229;49.856;19.030;2023-03-01T03:08:27;83;61;36
33948;PMS7003;20229;49.856;19.030;2023-03-01T03:13:40;75;60;41
33948;PMS7003;20229;49.856;19.030;2023-03-01T03:19:01;77;61;37
33948;PMS7003;20229;49.856;19.030;2023-03-01T03:24:18;75;59;38
33948;PMS7003;20229;49.856;19.030;2023-03-01T03:29:32;74;58;37
33948;PMS7003;20229;49.856;19.030;2023-03-01T03:34:46;60;44;30
33948;PMS7003;20229;49.856;19.030;2023-03-01T03:40:00;79;65;41
33948;PMS7003;20229;49.856;19.030;2023-03-01T03:45:14;84;68;45
33948;PMS7003;20229;49.856;19.030;2023-03-01T03:50:29;81;66;43
33948;PMS7003;20229;49.856;19.030;2023-03-01T03:55:42;89;69;45
33948;PMS7003;20229;49.856;19.030;2023-03-01T04:00:57;75;60;43
33948;PMS7003;20229;49.856;19.030;2023-03-01T04:06:11;76;62;42
33948;PMS7003;20229;49.856;19.030;2023-03-01T04:11:26;80;62;41
33948;PMS7003;20229;49.856;19.030;2023-03-01T04:16:39;77;61;38
33948;PMS7003;20229;49.856;19.030;2023-03-01T04:21:53;74;57;38
33948;PMS7003;20229;49.856;19.030;2023-03-01T04:27:07;85;68;42
33948;PMS7003;20229;49.856;19.030;2023-03-01T04:32:20;81;67;44
33948;PMS7003;20229;49.856;19.030;2023-03-01T04:37:34;76;60;40
33948;PMS7003;20229;49.856;19.030;2023-03-01T04:42:48;81;66;43
33948;PMS7003;20229;49.856;19.030;2023-03-01T04:48:03;80;68;45
33948;PMS7003;20229;49.856;19.030;2023-03-01T04:53:17;80;63;41
33948;PMS7003;20229;49.856;19.030;2023-03-01T04:58:32;73;60;41
33948;PMS7003;20229;49.856;19.030;2023-03-01T05:03:47;76;58;35
33948;PMS7003;20229;49.856;19.030;2023-03-01T05:09:03;73;57;35
33948;PMS7003;20229;49.856;19.030;2023-03-01T05:14:16;73;56;36
33948;PMS7003;20229;49.856;19.030;2023-03-01T05:19:31;76;61;39
33948;PMS7003;20229;49.856;19.030;2023-03-01T05:24:45;76;60;38
33948;PMS7003;20229;49.856;19.030;2023-03-01T05:30:00;74;59;40
33948;PMS7003;20229;49.856;19.030;2023-03-01T05:35:24;74;60;38
33948;PMS7003;20229;49.856;19.030;2023-03-01T05:40:38;83;64;42
33948;PMS7003;20229;49.856;19.030;2023-03-01T05:45:53;83;67;44
33948;PMS7003;20229;49.856;19.030;2023-03-01T05:51:10;72;55;34
33948;PMS7003;20229;49.856;19.030;2023-03-01T05:56:25;74;67;45
33948;PMS7003;20229;49.856;19.030;2023-03-01T06:01:39;78;61;40
33948;PMS7003;20229;49.856;19.030;2023-03-01T06:06:53;74;62;42
33948;PMS7003;20229;49.856;19.030;2023-03-01T06:12:07;74;58;35
33948;PMS7003;20229;49.856;19.030;2023-03-01T06:17:20;76;63;39
33948;PMS7003;20229;49.856;19.030;2023-03-01T06:22:34;67;50;31
33948;PMS7003;20229;49.856;19.030;2023-03-01T06:27:48;62;47;31
33948;PMS7003;20229;49.856;19.030;2023-03-01T06:33:03;65;51;34
33948;PMS7003;20229;49.856;19.030;2023-03-01T06:38:17;62;46;30
33948;PMS7003;20229;49.856;19.030;2023-03-01T06:43:32;64;48;33
33948;PMS7003;20229;49.856;19.030;2023-03-01T06:48:45;62;44;29
33948;PMS7003;20229;49.856;19.030;2023-03-01T06:53:59;54;40;28
33948;PMS7003;20229;49.856;19.030;2023-03-01T06:59:13;65;49;36
33948;PMS7003;20229;49.856;19.030;2023-03-01T07:04:27;69;54;38
33948;PMS7003;20229;49.856;19.030;2023-03-01T07:09:44;81;73;47
33948;PMS7003;20229;49.856;19.030;2023-03-01T07:14:58;86;73;48
33948;PMS7003;20229;49.856;19.030;2023-03-01T07:20:12;54;41;18
33948;PMS7003;20229;49.856;19.030;2023-03-01T07:25:26;40;30;8
33948;PMS7003;20229;49.856;19.030;2023-03-01T07:30:40;64;46;30
33948;PMS7003;20229;49.856;19.030;2023-03-01T07:35:58;52;41;27
33948;PMS7003;20229;49.856;19.030;2023-03-01T07:41:13;59;46;30
33948;PMS7003;20229;49.856;19.030;2023-03-01T07:46:30;56;43;27
33948;PMS7003;20229;49.856;19.030;2023-03-01T07:51:44;88;75;57
33948;PMS7003;20229;49.856;19.030;2023-03-01T07:56:58;69;54;36
33948;PMS7003;20229;49.856;19.030;2023-03-01T08:02:11;78;60;41
33948;PMS7003;20229;49.856;19.030;2023-03-01T08:07:25;71;54;36
33948;PMS7003;20229;49.856;19.030;2023-03-01T08:12:39;128;119;102
33948;PMS7003;20229;49.856;19.030;2023-03-01T08:17:53;108;96;72
33948;PMS7003;20229;49.856;19.030;2023-03-01T08:23:07;142;131;108
33948;PMS7003;20229;49.856;19.030;2023-03-01T08:28:20;100;84;67
33948;PMS7003;20229;49.856;19.030;2023-03-01T08:33:34;85;69;52
33948;PMS7003;20229;49.856;19.030;2023-03-01T08:38:48;92;80;61
33948;PMS7003;20229;49.856;19.030;2023-03-01T08:44:02;86;71;51
33948;PMS7003;20229;49.856;19.030;2023-03-01T08:49:17;87;77;58
33948;PMS7003;20229;49.856;19.030;2023-03-01T08:54:32;81;69;51
33948;PMS7003;20229;49.856;19.030;2023-03-01T08:59:46;79;65;52
33948;PMS7003;20229;49.856;19.030;2023-03-01T09:05:00;88;77;56
33948;PMS7003;20229;49.856;19.030;2023-03-01T09:10:14;83;72;52
33948;PMS7003;20229;49.856;19.030;2023-03-01T09:15:28;82;68;47
33948;PMS7003;20229;49.856;19.030;2023-03-01T09:20:41;80;65;46
33948;PMS7003;20229;49.856;19.030;2023-03-01T09:30:18;112;95;76
33948;PMS7003;20229;49.856;19.030;2023-03-01T09:35:44;104;90;75
33948;PMS7003;20229;49.856;19.030;2023-03-01T09:41:00;96;88;74
33948;PMS7003;20229;49.856;19.030;2023-03-01T09:46:15;80;63;47
33948;PMS7003;20229;49.856;19.030;2023-03-01T09:51:33;71;56;38
33948;PMS7003;20229;49.856;19.030;2023-03-01T10:07:44;59;48;33
33948;PMS7003;20229;49.856;19.030;2023-03-01T10:18:29;94;82;73
33948;PMS7003;20229;49.856;19.030;2023-03-01T10:23:51;98;91;80
33948;PMS7003;20229;49.856;19.030;2023-03-01T10:29:08;136;132;125
33948;PMS7003;20229;49.856;19.030;2023-03-01T10:50:37;206;204;196
33948;PMS7003;20229;49.856;19.030;2023-03-01T11:01:26;203;199;189
33948;PMS7003;20229;49.856;19.030;2023-03-01T11:06:42;205;201;194
33948;PMS7003;20229;49.856;19.030;2023-03-01T11:11:57;217;212;206
33948;PMS7003;20229;49.856;19.030;2023-03-01T11:22:59;154;149;140
33948;PMS7003;20229;49.856;19.030;2023-03-01T11:28:33;131;124;116
33948;PMS7003;20229;49.856;19.030;2023-03-01T11:33:57;160;152;143
33948;PMS7003;20229;49.856;19.030;2023-03-01T11:44:44;199;195;187
33948;PMS7003;20229;49.856;19.030;2023-03-01T12:00:58;170;163;157
33948;PMS7003;20229;49.856;19.030;2023-03-01T12:06:52;176;170;161
33948;PMS7003;20229;49.856;19.030;2023-03-01T12:17:40;122;110;99
33948;PMS7003;20229;49.856;19.030;2023-03-01T12:50:43;88;80;69
33948;PMS7003;20229;49.856;19.030;2023-03-01T13:17:45;54;42;31
33948;PMS7003;20229;49.856;19.030;2023-03-01T13:23:47;56;46;35
33948;PMS7003;20229;49.856;19.030;2023-03-01T13:39:44;60;48;35
33948;PMS7003;20229;49.856;19.030;2023-03-01T13:44:58;51;42;32
33948;PMS7003;20229;49.856;19.030;2023-03-01T13:50:18;53;44;33
33948;PMS7003;20229;49.856;19.030;2023-03-01T13:55:36;55;45;34
33948;PMS7003;20229;49.856;19.030;2023-03-01T14:00:56;47;38;28
33948;PMS7003;20229;49.856;19.030;2023-03-01T14:06:17;45;39;29
33948;PMS7003;20229;49.856;19.030;2023-03-01T14:11:44;47;41;31
33948;PMS7003;20229;49.856;19.030;2023-03-01T14:17:09;61;51;38
33948;PMS7003;20229;49.856;19.030;2023-03-01T14:22:32;61;50;39
33948;PMS7003;20229;49.856;19.030;2023-03-01T14:27:52;59;50;38
33948;PMS7003;20229;49.856;19.030;2023-03-01T14:38:37;61;50;39
33948;PMS7003;20229;49.856;19.030;2023-03-01T14:49:26;61;51;37
33948;PMS7003;20229;49.856;19.030;2023-03-01T15:00:06;56;46;35
33948;PMS7003;20229;49.856;19.030;2023-03-01T15:05:30;62;51;38
33948;PMS7003;20229;49.856;19.030;2023-03-01T15:16:40;50;41;32
33948;PMS7003;20229;49.856;19.030;2023-03-01T15:21:56;44;36;26
33948;PMS7003;20229;49.856;19.030;2023-03-01T15:27:14;44;36;26
33948;PMS7003;20229;49.856;19.030;2023-03-01T15:32:36;66;52;40
33948;PMS7003;20229;49.856;19.030;2023-03-01T15:37:52;37;29;22
33948;PMS7003;20229;49.856;19.030;2023-03-01T15:43:13;34;30;23
33948;PMS7003;20229;49.856;19.030;2023-03-01T15:48:30;58;48;35
33948;PMS7003;20229;49.856;19.030;2023-03-01T15:53:46;37;32;22
33948;PMS7003;20229;49.856;19.030;2023-03-01T15:59:04;73;59;45
33948;PMS7003;20229;49.856;19.030;2023-03-01T16:04:20;55;47;34
33948;PMS7003;20229;49.856;19.030;2023-03-01T16:09:36;67;55;42
33948;PMS7003;20229;49.856;19.030;2023-03-01T16:14:50;64;52;39
33948;PMS7003;20229;49.856;19.030;2023-03-01T16:20:06;66;53;42
33948;PMS7003;20229;49.856;19.030;2023-03-01T16:25:22;62;51;38
33948;PMS7003;20229;49.856;19.030;2023-03-01T16:30:39;52;43;35
33948;PMS7003;20229;49.856;19.030;2023-03-01T16:35:53;71;57;46
33948;PMS7003;20229;49.856;19.030;2023-03-01T16:41:08;58;46;34
33948;PMS7003;20229;49.856;19.030;2023-03-01T16:46:27;54;46;34
33948;PMS7003;20229;49.856;19.030;2023-03-01T16:51:42;37;26;11
33948;PMS7003;20229;49.856;19.030;2023-03-01T16:57:00;28;20;8
33948;PMS7003;20229;49.856;19.030;2023-03-01T17:02:14;76;63;51
33948;PMS7003;20229;49.856;19.030;2023-03-01T17:07:33;82;64;50
33948;PMS7003;20229;49.856;19.030;2023-03-01T17:12:48;81;68;53
33948;PMS7003;20229;49.856;19.030;2023-03-01T17:18:03;83;69;56
33948;PMS7003;20229;49.856;19.030;2023-03-01T17:23:17;73;57;41
33948;PMS7003;20229;49.856;19.030;2023-03-01T17:28:32;80;60;41
33948;PMS7003;20229;49.856;19.030;2023-03-01T17:33:46;71;56;41
33948;PMS7003;20229;49.856;19.030;2023-03-01T17:39:02;74;57;39
33948;PMS7003;20229;49.856;19.030;2023-03-01T17:44:16;77;58;41
33948;PMS7003;20229;49.856;19.030;2023-03-01T17:49:30;74;57;37
33948;PMS7003;20229;49.856;19.030;2023-03-01T17:54:44;74;57;39
33948;PMS7003;20229;49.856;19.030;2023-03-01T17:59:58;71;53;33
33948;PMS7003;20229;49.856;19.030;2023-03-01T18:05:12;61;46;30
33948;PMS7003;20229;49.856;19.030;2023-03-01T18:10:26;74;56;37
33948;PMS7003;20229;49.856;19.030;2023-03-01T18:15:40;75;56;36
33948;PMS7003;20229;49.856;19.030;2023-03-01T18:20:57;64;50;32
33948;PMS7003;20229;49.856;19.030;2023-03-01T18:26:13;78;55;31
33948;PMS7003;20229;49.856;19.030;2023-03-01T18:31:32;81;61;39
33948;PMS7003;20229;49.856;19.030;2023-03-01T18:36:46;78;57;36
33948;PMS7003;20229;49.856;19.030;2023-03-01T18:42:00;73;58;38
33948;PMS7003;20229;49.856;19.030;2023-03-01T18:47:15;79;56;33
33948;PMS7003;20229;49.856;19.030;2023-03-01T18:52:29;84;63;39
33948;PMS7003;20229;49.856;19.030;2023-03-01T18:57:43;88;68;43
33948;PMS7003;20229;49.856;19.030;2023-03-01T19:02:57;87;70;44
33948;PMS7003;20229;49.856;19.030;2023-03-01T19:08:13;95;79;47
33948;PMS7003;20229;49.856;19.030;2023-03-01T19:13:27;98;73;44
33948;PMS7003;20229;49.856;19.030;2023-03-01T19:18:43;96;79;47
33948;PMS7003;20229;49.856;19.030;2023-03-01T19:24:03;96;79;47
33948;PMS7003;20229;49.856;19.030;2023-03-01T19:29:17;100;75;42
33948;PMS7003;20229;49.856;19.030;2023-03-01T19:34:31;86;65;34
33948;PMS7003;20229;49.856;19.030;2023-03-01T19:39:46;126;102;68
33948;PMS7003;20229;49.856;19.030;2023-03-01T19:45:00;117;96;69
33948;PMS7003;20229;49.856;19.030;2023-03-01T19:50:14;117;101;65
33948;PMS7003;20229;49.856;19.030;2023-03-01T19:55:28;105;86;55
33948;PMS7003;20229;49.856;19.030;2023-03-01T20:00:43;123;106;68
33948;PMS7003;20229;49.856;19.030;2023-03-01T20:05:58;132;111;72
33948;PMS7003;20229;49.856;19.030;2023-03-01T20:11:16;105;78;44
33948;PMS7003;20229;49.856;19.030;2023-03-01T20:16:31;144;119;79
33948;PMS7003;20229;49.856;19.030;2023-03-01T20:21:45;120;98;62
33948;PMS7003;20229;49.856;19.030;2023-03-01T20:27:02;102;80;52
33948;PMS7003;20229;49.856;19.030;2023-03-01T20:32:16;111;93;57
33948;PMS7003;20229;49.856;19.030;2023-03-01T20:37:30;79;60;40
33948;PMS7003;20229;49.856;19.030;2023-03-01T20:42:44;108;85;49
33948;PMS7003;20229;49.856;19.030;2023-03-01T20:47:57;100;76;40
33948;PMS7003;20229;49.856;19.030;2023-03-01T20:53:11;100;78;45
33948;PMS7003;20229;49.856;19.030;2023-03-01T20:58:25;112;84;48
33948;PMS7003;20229;49.856;19.030;2023-03-01T21:03:45;97;78;49
33948;PMS7003;20229;49.856;19.030;2023-03-01T21:08:59;90;69;48
33948;PMS7003;20229;49.856;19.030;2023-03-01T21:14:14;104;85;55
33948;PMS7003;20229;49.856;19.030;2023-03-01T21:19:30;97;74;42
33948;PMS7003;20229;49.856;19.030;2023-03-01T21:24:51;109;87;53
33948;PMS7003;20229;49.856;19.030;2023-03-01T21:30:05;91;76;45
33948;PMS7003;20229;49.856;19.030;2023-03-01T21:35:19;103;78;48
33948;PMS7003;20229;49.856;19.030;2023-03-01T21:40:35;99;82;51
33948;PMS7003;20229;49.856;19.030;2023-03-01T21:45:49;98;76;45
33948;PMS7003;20229;49.856;19.030;2023-03-01T21:51:03;99;77;45
33948;PMS7003;20229;49.856;19.030;2023-03-01T21:56:18;106;79;48
33948;PMS7003;20229;49.856;19.030;2023-03-01T22:01:33;94;67;39
33948;PMS7003;20229;49.856;19.030;2023-03-01T22:06:47;92;77;43
33948;PMS7003;20229;49.856;19.030;2023-03-01T22:12:01;100;81;48
33948;PMS7003;20229;49.856;19.030;2023-03-01T22:17:15;96;79;46
33948;PMS7003;20229;49.856;19.030;2023-03-01T22:22:29;89;72;41
33948;PMS7003;20229;49.856;19.030;2023-03-01T22:27:45;88;65;40
33948;PMS7003;20229;49.856;19.030;2023-03-01T22:32:59;101;76;44
33948;PMS7003;20229;49.856;19.030;2023-03-01T22:38:13;82;57;37
33948;PMS7003;20229;49.856;19.030;2023-03-01T22:43:27;69;49;30
33948;PMS7003;20229;49.856;19.030;2023-03-01T22:48:42;132;110;59
33948;PMS7003;20229;49.856;19.030;2023-03-01T22:53:57;116;92;59
33948;PMS7003;20229;49.856;19.030;2023-03-01T22:59:12;155;136;88
33948;PMS7003;20229;49.856;19.030;2023-03-01T23:04:28;183;164;110
33948;PMS7003;20229;49.856;19.030;2023-03-01T23:09:41;347;331;249
33948;PMS7003;20229;49.856;19.030;2023-03-01T23:14:55;350;333;260
33948;PMS7003;20229;49.856;19.030;2023-03-01T23:20:09;436;417;342
33948;PMS7003;20229;49.856;19.030;2023-03-01T23:25:26;354;337;305
33948;PMS7003;20229;49.856;19.030;2023-03-01T23:30:40;277;266;240
33948;PMS7003;20229;49.856;19.030;2023-03-01T23:35:57;262;249;216
33948;PMS7003;20229;49.856;19.030;2023-03-01T23:41:16;177;168;142
33948;PMS7003;20229;49.856;19.030;2023-03-01T23:46:33;172;158;125
33948;PMS7003;20229;49.856;19.030;2023-03-01T23:51:47;147;123;90
33948;PMS7003;20229;49.856;19.030;2023-03-01T23:57:01;98;77;50
